sensor_id;sensor_type;location;lat;lon;timestamp;P1;durP1;ratioP1;P2;durP2;ratioP2
81591;SDS011;71014;53.394;6.724;2023-10-13T00:00:45;58.67;;;18.08;;
81591;SDS011;71014;53.394;6.724;2023-10-13T00:03:12;64.82;;;17.10;;
81591;SDS011;71014;53.394;6.724;2023-10-13T00:05:41;71.45;;;17.83;;
81591;SDS011;71014;53.394;6.724;2023-10-13T00:08:08;51.63;;;17.23;;
81591;SDS011;71014;53.394;6.724;2023-10-13T00:10:34;77.35;;;19.45;;
81591;SDS011;71014;53.394;6.724;2023-10-13T00:13:00;87.47;;;19.27;;
81591;SDS011;71014;53.394;6.724;2023-10-13T00:18:17;43.22;;;16.05;;
81591;SDS011;71014;53.394;6.724;2023-10-13T00:20:44;69.40;;;17.45;;
81591;SDS011;71014;53.394;6.724;2023-10-13T00:23:14;38.80;;;14.77;;
81591;SDS011;71014;53.394;6.724;2023-10-13T00:25:45;59.08;;;17.30;;
81591;SDS011;71014;53.394;6.724;2023-10-13T00:28:15;49.10;;;15.73;;
81591;SDS011;71014;53.394;6.724;2023-10-13T00:30:52;60.65;;;17.73;;
81591;SDS011;71014;53.394;6.724;2023-10-13T00:33:25;41.08;;;14.45;;
81591;SDS011;71014;53.394;6.724;2023-10-13T00:35:52;49.42;;;16.48;;
81591;SDS011;71014;53.394;6.724;2023-10-13T00:38:19;49.15;;;16.92;;
81591;SDS011;71014;53.394;6.724;2023-10-13T00:40:48;49.60;;;18.00;;
81591;SDS011;71014;53.394;6.724;2023-10-13T00:43:17;74.20;;;20.48;;
81591;SDS011;71014;53.394;6.724;2023-10-13T00:45:43;64.82;;;18.77;;
81591;SDS011;71014;53.394;6.724;2023-10-13T00:48:13;52.45;;;18.42;;
81591;SDS011;71014;53.394;6.724;2023-10-13T00:50:41;63.13;;;18.95;;
81591;SDS011;71014;53.394;6.724;2023-10-13T00:53:08;55.53;;;17.60;;
81591;SDS011;71014;53.394;6.724;2023-10-13T00:55:34;67.25;;;18.75;;
81591;SDS011;71014;53.394;6.724;2023-10-13T00:58:06;59.95;;;19.50;;
81591;SDS011;71014;53.394;6.724;2023-10-13T01:03:11;46.63;;;17.10;;
81591;SDS011;71014;53.394;6.724;2023-10-13T01:05:37;65.25;;;20.73;;
81591;SDS011;71014;53.394;6.724;2023-10-13T01:10:35;54.58;;;18.08;;
81591;SDS011;71014;53.394;6.724;2023-10-13T01:13:02;52.22;;;18.27;;
81591;SDS011;71014;53.394;6.724;2023-10-13T01:15:29;48.17;;;18.90;;
81591;SDS011;71014;53.394;6.724;2023-10-13T01:18:07;48.72;;;17.52;;
81591;SDS011;71014;53.394;6.724;2023-10-13T01:20:37;58.75;;;19.42;;
81591;SDS011;71014;53.394;6.724;2023-10-13T01:23:11;56.15;;;17.95;;
81591;SDS011;71014;53.394;6.724;2023-10-13T01:25:43;59.08;;;21.10;;
81591;SDS011;71014;53.394;6.724;2023-10-13T01:30:40;45.72;;;18.73;;
81591;SDS011;71014;53.394;6.724;2023-10-13T01:33:06;51.28;;;18.05;;
81591;SDS011;71014;53.394;6.724;2023-10-13T01:35:34;37.17;;;17.27;;
81591;SDS011;71014;53.394;6.724;2023-10-13T01:38:15;47.85;;;19.75;;
81591;SDS011;71014;53.394;6.724;2023-10-13T01:40:41;45.97;;;17.67;;
81591;SDS011;71014;53.394;6.724;2023-10-13T01:43:08;46.80;;;18.63;;
81591;SDS011;71014;53.394;6.724;2023-10-13T01:45:39;35.83;;;16.33;;
81591;SDS011;71014;53.394;6.724;2023-10-13T01:48:11;41.17;;;17.08;;
81591;SDS011;71014;53.394;6.724;2023-10-13T01:50:40;31.33;;;14.65;;
81591;SDS011;71014;53.394;6.724;2023-10-13T01:53:07;38.60;;;15.20;;
81591;SDS011;71014;53.394;6.724;2023-10-13T01:55:42;37.38;;;15.90;;
81591;SDS011;71014;53.394;6.724;2023-10-13T01:58:12;36.58;;;14.40;;
81591;SDS011;71014;53.394;6.724;2023-10-13T02:03:09;31.77;;;14.63;;
81591;SDS011;71014;53.394;6.724;2023-10-13T02:05:45;41.15;;;17.17;;
81591;SDS011;71014;53.394;6.724;2023-10-13T02:08:15;30.70;;;14.75;;
81591;SDS011;71014;53.394;6.724;2023-10-13T02:10:48;37.15;;;15.80;;
81591;SDS011;71014;53.394;6.724;2023-10-13T02:13:14;35.50;;;16.08;;
81591;SDS011;71014;53.394;6.724;2023-10-13T02:15:42;40.22;;;16.67;;
81591;SDS011;71014;53.394;6.724;2023-10-13T02:20:34;33.05;;;15.30;;
81591;SDS011;71014;53.394;6.724;2023-10-13T02:23:06;30.60;;;14.98;;
81591;SDS011;71014;53.394;6.724;2023-10-13T02:25:35;36.38;;;15.88;;
81591;SDS011;71014;53.394;6.724;2023-10-13T02:28:08;32.30;;;15.15;;
81591;SDS011;71014;53.394;6.724;2023-10-13T02:30:46;28.08;;;13.32;;
81591;SDS011;71014;53.394;6.724;2023-10-13T02:33:15;30.95;;;15.63;;
81591;SDS011;71014;53.394;6.724;2023-10-13T02:35:46;26.40;;;14.00;;
81591;SDS011;71014;53.394;6.724;2023-10-13T02:38:18;27.70;;;13.40;;
81591;SDS011;71014;53.394;6.724;2023-10-13T02:40:52;25.65;;;12.45;;
81591;SDS011;71014;53.394;6.724;2023-10-13T02:43:19;26.52;;;13.07;;
81591;SDS011;71014;53.394;6.724;2023-10-13T02:45:51;23.23;;;13.25;;
81591;SDS011;71014;53.394;6.724;2023-10-13T02:48:22;28.10;;;12.30;;
81591;SDS011;71014;53.394;6.724;2023-10-13T02:50:54;25.20;;;12.43;;
81591;SDS011;71014;53.394;6.724;2023-10-13T02:53:21;25.65;;;12.00;;
81591;SDS011;71014;53.394;6.724;2023-10-13T02:55:53;22.73;;;11.30;;
81591;SDS011;71014;53.394;6.724;2023-10-13T02:58:21;21.17;;;10.90;;
81591;SDS011;71014;53.394;6.724;2023-10-13T03:00:47;20.33;;;10.55;;
81591;SDS011;71014;53.394;6.724;2023-10-13T03:03:14;20.75;;;9.88;;
81591;SDS011;71014;53.394;6.724;2023-10-13T03:05:43;15.25;;;8.75;;
81591;SDS011;71014;53.394;6.724;2023-10-13T03:08:10;16.42;;;9.48;;
81591;SDS011;71014;53.394;6.724;2023-10-13T03:10:37;20.85;;;9.38;;
81591;SDS011;71014;53.394;6.724;2023-10-13T03:13:11;16.65;;;8.75;;
81591;SDS011;71014;53.394;6.724;2023-10-13T03:15:37;16.15;;;8.40;;
81591;SDS011;71014;53.394;6.724;2023-10-13T03:18:03;21.38;;;9.30;;
81591;SDS011;71014;53.394;6.724;2023-10-13T03:20:29;17.30;;;9.65;;
81591;SDS011;71014;53.394;6.724;2023-10-13T03:22:57;15.25;;;9.77;;
81591;SDS011;71014;53.394;6.724;2023-10-13T03:25:23;21.67;;;9.68;;
81591;SDS011;71014;53.394;6.724;2023-10-13T03:27:54;22.40;;;9.15;;
81591;SDS011;71014;53.394;6.724;2023-10-13T03:30:20;19.95;;;9.00;;
81591;SDS011;71014;53.394;6.724;2023-10-13T03:32:47;18.25;;;8.20;;
81591;SDS011;71014;53.394;6.724;2023-10-13T03:35:19;17.50;;;8.48;;
81591;SDS011;71014;53.394;6.724;2023-10-13T03:37:56;15.02;;;7.70;;
81591;SDS011;71014;53.394;6.724;2023-10-13T03:40:23;17.20;;;9.05;;
81591;SDS011;71014;53.394;6.724;2023-10-13T03:42:49;12.32;;;8.18;;
81591;SDS011;71014;53.394;6.724;2023-10-13T03:45:34;15.10;;;7.82;;
81591;SDS011;71014;53.394;6.724;2023-10-13T03:48:16;13.70;;;7.97;;
81591;SDS011;71014;53.394;6.724;2023-10-13T03:50:52;14.27;;;8.52;;
81591;SDS011;71014;53.394;6.724;2023-10-13T03:53:38;16.85;;;9.23;;
81591;SDS011;71014;53.394;6.724;2023-10-13T03:56:17;16.15;;;8.02;;
81591;SDS011;71014;53.394;6.724;2023-10-13T03:58:56;17.90;;;9.75;;
81591;SDS011;71014;53.394;6.724;2023-10-13T04:01:25;17.95;;;9.55;;
81591;SDS011;71014;53.394;6.724;2023-10-13T04:04:10;20.75;;;11.23;;
81591;SDS011;71014;53.394;6.724;2023-10-13T04:06:37;19.45;;;11.75;;
81591;SDS011;71014;53.394;6.724;2023-10-13T04:11:56;19.98;;;11.02;;
81591;SDS011;71014;53.394;6.724;2023-10-13T04:14:32;25.85;;;12.55;;
81591;SDS011;71014;53.394;6.724;2023-10-13T04:17:17;23.25;;;11.48;;
81591;SDS011;71014;53.394;6.724;2023-10-13T04:19:48;22.13;;;11.63;;
81591;SDS011;71014;53.394;6.724;2023-10-13T04:22:33;23.67;;;11.32;;
81591;SDS011;71014;53.394;6.724;2023-10-13T04:25:28;19.67;;;11.30;;
81591;SDS011;71014;53.394;6.724;2023-10-13T04:28:09;23.48;;;11.40;;
81591;SDS011;71014;53.394;6.724;2023-10-13T04:30:45;20.40;;;11.68;;
81591;SDS011;71014;53.394;6.724;2023-10-13T04:33:38;15.23;;;9.45;;
81591;SDS011;71014;53.394;6.724;2023-10-13T04:36:17;17.83;;;9.95;;
81591;SDS011;71014;53.394;6.724;2023-10-13T04:38:53;15.32;;;7.75;;
81591;SDS011;71014;53.394;6.724;2023-10-13T04:44:04;14.07;;;8.63;;
81591;SDS011;71014;53.394;6.724;2023-10-13T04:46:30;15.65;;;9.07;;
81591;SDS011;71014;53.394;6.724;2023-10-13T04:49:12;13.18;;;7.72;;
81591;SDS011;71014;53.394;6.724;2023-10-13T04:51:57;16.65;;;9.27;;
81591;SDS011;71014;53.394;6.724;2023-10-13T04:54:27;12.68;;;7.57;;
81591;SDS011;71014;53.394;6.724;2023-10-13T04:57:20;14.63;;;8.23;;
81591;SDS011;71014;53.394;6.724;2023-10-13T05:00:05;17.52;;;8.32;;
81591;SDS011;71014;53.394;6.724;2023-10-13T05:02:57;16.45;;;8.57;;
81591;SDS011;71014;53.394;6.724;2023-10-13T05:05:26;17.92;;;9.48;;
81591;SDS011;71014;53.394;6.724;2023-10-13T05:07:55;16.50;;;8.32;;
81591;SDS011;71014;53.394;6.724;2023-10-13T05:10:40;16.55;;;8.95;;
81591;SDS011;71014;53.394;6.724;2023-10-13T05:13:24;15.70;;;8.25;;
81591;SDS011;71014;53.394;6.724;2023-10-13T05:16:09;15.10;;;8.15;;
81591;SDS011;71014;53.394;6.724;2023-10-13T05:18:54;15.77;;;8.65;;
81591;SDS011;71014;53.394;6.724;2023-10-13T05:21:38;16.75;;;8.10;;
81591;SDS011;71014;53.394;6.724;2023-10-13T05:24:22;14.48;;;7.75;;
81591;SDS011;71014;53.394;6.724;2023-10-13T05:27:07;13.73;;;7.68;;
81591;SDS011;71014;53.394;6.724;2023-10-13T05:29:51;15.63;;;7.15;;
81591;SDS011;71014;53.394;6.724;2023-10-13T05:32:36;15.98;;;8.00;;
81591;SDS011;71014;53.394;6.724;2023-10-13T05:35:20;12.07;;;7.18;;
81591;SDS011;71014;53.394;6.724;2023-10-13T05:38:05;13.02;;;7.10;;
81591;SDS011;71014;53.394;6.724;2023-10-13T05:43:37;12.77;;;7.60;;
81591;SDS011;71014;53.394;6.724;2023-10-13T05:46:22;14.57;;;7.47;;
81591;SDS011;71014;53.394;6.724;2023-10-13T05:48:51;14.00;;;7.97;;
81591;SDS011;71014;53.394;6.724;2023-10-13T05:51:27;10.02;;;5.75;;
81591;SDS011;71014;53.394;6.724;2023-10-13T05:54:11;10.38;;;5.57;;
81591;SDS011;71014;53.394;6.724;2023-10-13T05:56:48;8.27;;;5.25;;
81591;SDS011;71014;53.394;6.724;2023-10-13T05:59:33;6.82;;;4.40;;
81591;SDS011;71014;53.394;6.724;2023-10-13T06:02:23;6.82;;;4.32;;
81591;SDS011;71014;53.394;6.724;2023-10-13T06:05:09;10.25;;;5.15;;
81591;SDS011;71014;53.394;6.724;2023-10-13T06:07:54;8.27;;;5.03;;
81591;SDS011;71014;53.394;6.724;2023-10-13T06:10:39;6.32;;;4.18;;
81591;SDS011;71014;53.394;6.724;2023-10-13T06:13:24;6.10;;;3.88;;
81591;SDS011;71014;53.394;6.724;2023-10-13T06:16:09;4.20;;;2.58;;
81591;SDS011;71014;53.394;6.724;2023-10-13T06:18:54;3.05;;;2.33;;
81591;SDS011;71014;53.394;6.724;2023-10-13T06:21:38;2.60;;;1.90;;
81591;SDS011;71014;53.394;6.724;2023-10-13T06:24:23;3.67;;;2.90;;
81591;SDS011;71014;53.394;6.724;2023-10-13T06:27:07;4.70;;;2.83;;
81591;SDS011;71014;53.394;6.724;2023-10-13T06:29:52;5.15;;;3.25;;
81591;SDS011;71014;53.394;6.724;2023-10-13T06:32:21;6.07;;;3.35;;
81591;SDS011;71014;53.394;6.724;2023-10-13T06:34:53;4.75;;;3.15;;
81591;SDS011;71014;53.394;6.724;2023-10-13T06:37:25;4.53;;;2.90;;
81591;SDS011;71014;53.394;6.724;2023-10-13T06:40:10;4.13;;;2.60;;
81591;SDS011;71014;53.394;6.724;2023-10-13T06:42:58;3.63;;;2.30;;
81591;SDS011;71014;53.394;6.724;2023-10-13T06:45:43;3.28;;;2.63;;
81591;SDS011;71014;53.394;6.724;2023-10-13T06:48:22;4.28;;;3.00;;
81591;SDS011;71014;53.394;6.724;2023-10-13T06:50:48;6.35;;;3.67;;
81591;SDS011;71014;53.394;6.724;2023-10-13T06:53:17;4.85;;;2.88;;
81591;SDS011;71014;53.394;6.724;2023-10-13T06:55:43;4.35;;;3.28;;
81591;SDS011;71014;53.394;6.724;2023-10-13T06:58:12;5.70;;;3.65;;
81591;SDS011;71014;53.394;6.724;2023-10-13T07:00:42;5.00;;;3.40;;
81591;SDS011;71014;53.394;6.724;2023-10-13T07:03:18;5.22;;;3.03;;
81591;SDS011;71014;53.394;6.724;2023-10-13T07:05:45;5.47;;;3.13;;
81591;SDS011;71014;53.394;6.724;2023-10-13T07:08:14;4.38;;;3.25;;
81591;SDS011;71014;53.394;6.724;2023-10-13T07:10:51;4.22;;;2.53;;
81591;SDS011;71014;53.394;6.724;2023-10-13T07:13:27;3.30;;;2.17;;
81591;SDS011;71014;53.394;6.724;2023-10-13T07:15:53;3.33;;;2.20;;
81591;SDS011;71014;53.394;6.724;2023-10-13T07:18:25;2.50;;;1.92;;
81591;SDS011;71014;53.394;6.724;2023-10-13T07:20:51;3.53;;;2.30;;
81591;SDS011;71014;53.394;6.724;2023-10-13T07:23:22;3.80;;;2.13;;
81591;SDS011;71014;53.394;6.724;2023-10-13T07:28:15;4.63;;;1.83;;
81591;SDS011;71014;53.394;6.724;2023-10-13T07:30:42;3.47;;;2.03;;
81591;SDS011;71014;53.394;6.724;2023-10-13T07:33:34;5.05;;;2.20;;
81591;SDS011;71014;53.394;6.724;2023-10-13T07:36:00;3.78;;;2.65;;
81591;SDS011;71014;53.394;6.724;2023-10-13T07:38:36;4.43;;;2.50;;
81591;SDS011;71014;53.394;6.724;2023-10-13T07:41:03;3.03;;;2.35;;
81591;SDS011;71014;53.394;6.724;2023-10-13T07:43:34;5.90;;;2.63;;
81591;SDS011;71014;53.394;6.724;2023-10-13T07:46:02;4.57;;;2.35;;
81591;SDS011;71014;53.394;6.724;2023-10-13T07:48:35;7.07;;;2.95;;
81591;SDS011;71014;53.394;6.724;2023-10-13T07:51:02;4.28;;;2.63;;
81591;SDS011;71014;53.394;6.724;2023-10-13T07:53:29;8.52;;;2.70;;
81591;SDS011;71014;53.394;6.724;2023-10-13T07:55:59;4.63;;;2.83;;
81591;SDS011;71014;53.394;6.724;2023-10-13T07:58:30;5.45;;;2.83;;
81591;SDS011;71014;53.394;6.724;2023-10-13T08:00:59;6.35;;;2.80;;
81591;SDS011;71014;53.394;6.724;2023-10-13T08:03:34;7.90;;;3.25;;
81591;SDS011;71014;53.394;6.724;2023-10-13T08:06:10;8.77;;;3.10;;
81591;SDS011;71014;53.394;6.724;2023-10-13T08:08:37;6.13;;;2.95;;
81591;SDS011;71014;53.394;6.724;2023-10-13T08:11:07;8.57;;;3.58;;
81591;SDS011;71014;53.394;6.724;2023-10-13T08:13:48;8.00;;;3.22;;
81591;SDS011;71014;53.394;6.724;2023-10-13T08:16:22;5.43;;;3.00;;
81591;SDS011;71014;53.394;6.724;2023-10-13T08:18:51;8.23;;;3.53;;
81591;SDS011;71014;53.394;6.724;2023-10-13T08:21:18;9.10;;;3.40;;
81591;SDS011;71014;53.394;6.724;2023-10-13T08:23:57;7.68;;;2.72;;
81591;SDS011;71014;53.394;6.724;2023-10-13T08:26:28;6.03;;;3.05;;
81591;SDS011;71014;53.394;6.724;2023-10-13T08:29:12;7.45;;;3.58;;
81591;SDS011;71014;53.394;6.724;2023-10-13T08:31:51;8.02;;;4.00;;
81591;SDS011;71014;53.394;6.724;2023-10-13T08:34:32;8.70;;;4.05;;
81591;SDS011;71014;53.394;6.724;2023-10-13T08:37:06;10.52;;;4.03;;
81591;SDS011;71014;53.394;6.724;2023-10-13T08:39:54;6.40;;;3.88;;
81591;SDS011;71014;53.394;6.724;2023-10-13T08:42:43;11.05;;;4.28;;
81591;SDS011;71014;53.394;6.724;2023-10-13T08:47:50;5.32;;;2.80;;
81591;SDS011;71014;53.394;6.724;2023-10-13T08:50:36;5.72;;;3.15;;
81591;SDS011;71014;53.394;6.724;2023-10-13T08:53:15;10.43;;;3.70;;
81591;SDS011;71014;53.394;6.724;2023-10-13T08:55:57;8.48;;;3.63;;
81591;SDS011;71014;53.394;6.724;2023-10-13T08:58:30;7.55;;;3.50;;
81591;SDS011;71014;53.394;6.724;2023-10-13T09:01:15;7.78;;;2.90;;
81591;SDS011;71014;53.394;6.724;2023-10-13T09:04:00;7.20;;;3.47;;
81591;SDS011;71014;53.394;6.724;2023-10-13T09:06:47;8.23;;;4.05;;
81591;SDS011;71014;53.394;6.724;2023-10-13T09:12:10;9.85;;;5.03;;
81591;SDS011;71014;53.394;6.724;2023-10-13T09:14:37;8.77;;;3.70;;
81591;SDS011;71014;53.394;6.724;2023-10-13T09:17:08;9.38;;;3.47;;
81591;SDS011;71014;53.394;6.724;2023-10-13T09:19:47;8.90;;;3.60;;
81591;SDS011;71014;53.394;6.724;2023-10-13T09:22:24;7.22;;;4.18;;
81591;SDS011;71014;53.394;6.724;2023-10-13T09:25:00;6.95;;;3.63;;
81591;SDS011;71014;53.394;6.724;2023-10-13T09:27:27;8.32;;;3.55;;
81591;SDS011;71014;53.394;6.724;2023-10-13T09:29:57;6.53;;;4.00;;
81591;SDS011;71014;53.394;6.724;2023-10-13T09:32:31;6.15;;;3.33;;
81591;SDS011;71014;53.394;6.724;2023-10-13T09:35:10;6.85;;;3.40;;
81591;SDS011;71014;53.394;6.724;2023-10-13T09:37:38;5.53;;;3.22;;
81591;SDS011;71014;53.394;6.724;2023-10-13T09:40:06;8.05;;;4.15;;
81591;SDS011;71014;53.394;6.724;2023-10-13T09:42:49;5.70;;;3.28;;
81591;SDS011;71014;53.394;6.724;2023-10-13T09:45:16;9.10;;;3.35;;
81591;SDS011;71014;53.394;6.724;2023-10-13T09:47:43;13.13;;;3.80;;
81591;SDS011;71014;53.394;6.724;2023-10-13T09:50:12;6.55;;;3.35;;
81591;SDS011;71014;53.394;6.724;2023-10-13T09:52:40;7.82;;;3.88;;
81591;SDS011;71014;53.394;6.724;2023-10-13T09:55:30;4.90;;;4.13;;
81591;SDS011;71014;53.394;6.724;2023-10-13T09:58:00;8.70;;;4.07;;
81591;SDS011;71014;53.394;6.724;2023-10-13T10:00:35;9.85;;;3.30;;
81591;SDS011;71014;53.394;6.724;2023-10-13T10:03:06;10.95;;;3.55;;
81591;SDS011;71014;53.394;6.724;2023-10-13T10:05:41;7.68;;;4.22;;
81591;SDS011;71014;53.394;6.724;2023-10-13T10:08:22;8.23;;;4.45;;
81591;SDS011;71014;53.394;6.724;2023-10-13T10:10:59;7.05;;;3.40;;
81591;SDS011;71014;53.394;6.724;2023-10-13T10:13:39;8.25;;;3.60;;
81591;SDS011;71014;53.394;6.724;2023-10-13T10:16:11;8.05;;;3.00;;
81591;SDS011;71014;53.394;6.724;2023-10-13T10:18:44;6.55;;;2.95;;
81591;SDS011;71014;53.394;6.724;2023-10-13T10:21:10;8.50;;;3.88;;
81591;SDS011;71014;53.394;6.724;2023-10-13T10:23:40;6.22;;;3.20;;
81591;SDS011;71014;53.394;6.724;2023-10-13T10:26:11;7.88;;;3.20;;
81591;SDS011;71014;53.394;6.724;2023-10-13T10:28:43;8.57;;;3.47;;
81591;SDS011;71014;53.394;6.724;2023-10-13T10:31:12;4.40;;;3.30;;
81591;SDS011;71014;53.394;6.724;2023-10-13T10:33:39;13.05;;;3.33;;
81591;SDS011;71014;53.394;6.724;2023-10-13T10:36:06;8.02;;;3.58;;
81591;SDS011;71014;53.394;6.724;2023-10-13T10:38:37;7.65;;;3.08;;
81591;SDS011;71014;53.394;6.724;2023-10-13T10:41:06;8.60;;;3.70;;
81591;SDS011;71014;53.394;6.724;2023-10-13T10:43:37;5.47;;;2.92;;
81591;SDS011;71014;53.394;6.724;2023-10-13T10:48:39;12.45;;;4.00;;
81591;SDS011;71014;53.394;6.724;2023-10-13T10:51:11;9.43;;;2.80;;
81591;SDS011;71014;53.394;6.724;2023-10-13T10:53:47;4.25;;;2.92;;
81591;SDS011;71014;53.394;6.724;2023-10-13T10:56:15;7.40;;;3.72;;
81591;SDS011;71014;53.394;6.724;2023-10-13T10:58:47;11.80;;;3.47;;
81591;SDS011;71014;53.394;6.724;2023-10-13T11:01:15;6.38;;;3.05;;
81591;SDS011;71014;53.394;6.724;2023-10-13T11:04:02;5.63;;;3.05;;
81591;SDS011;71014;53.394;6.724;2023-10-13T11:06:49;7.45;;;3.17;;
81591;SDS011;71014;53.394;6.724;2023-10-13T11:09:23;7.47;;;3.42;;
81591;SDS011;71014;53.394;6.724;2023-10-13T11:12:17;6.35;;;2.78;;
81591;SDS011;71014;53.394;6.724;2023-10-13T11:14:59;11.55;;;3.22;;
81591;SDS011;71014;53.394;6.724;2023-10-13T11:17:25;8.88;;;3.22;;
81591;SDS011;71014;53.394;6.724;2023-10-13T11:20:10;10.65;;;3.47;;
81591;SDS011;71014;53.394;6.724;2023-10-13T11:22:48;11.82;;;3.17;;
81591;SDS011;71014;53.394;6.724;2023-10-13T11:25:25;12.02;;;2.90;;
81591;SDS011;71014;53.394;6.724;2023-10-13T11:28:13;9.18;;;3.78;;
81591;SDS011;71014;53.394;6.724;2023-10-13T11:30:42;11.27;;;3.83;;
81591;SDS011;71014;53.394;6.724;2023-10-13T11:33:14;7.05;;;3.20;;
81591;SDS011;71014;53.394;6.724;2023-10-13T11:35:44;11.52;;;3.58;;
81591;SDS011;71014;53.394;6.724;2023-10-13T11:40:58;7.13;;;3.63;;
81591;SDS011;71014;53.394;6.724;2023-10-13T11:43:43;8.23;;;3.78;;
81591;SDS011;71014;53.394;6.724;2023-10-13T11:46:21;9.55;;;3.05;;
81591;SDS011;71014;53.394;6.724;2023-10-13T11:49:03;8.15;;;3.40;;
81591;SDS011;71014;53.394;6.724;2023-10-13T11:51:38;7.47;;;2.80;;
81591;SDS011;71014;53.394;6.724;2023-10-13T11:54:04;7.60;;;3.03;;
81591;SDS011;71014;53.394;6.724;2023-10-13T11:56:30;7.68;;;3.55;;
81591;SDS011;71014;53.394;6.724;2023-10-13T11:58:56;7.32;;;3.67;;
81591;SDS011;71014;53.394;6.724;2023-10-13T12:01:30;9.35;;;3.13;;
81591;SDS011;71014;53.394;6.724;2023-10-13T12:04:15;6.80;;;3.45;;
81591;SDS011;71014;53.394;6.724;2023-10-13T12:06:58;8.73;;;4.18;;
81591;SDS011;71014;53.394;6.724;2023-10-13T12:09:39;6.90;;;2.85;;
81591;SDS011;71014;53.394;6.724;2023-10-13T12:12:29;11.13;;;3.17;;
81591;SDS011;71014;53.394;6.724;2023-10-13T12:14:56;6.63;;;3.05;;
81591;SDS011;71014;53.394;6.724;2023-10-13T12:17:26;7.82;;;4.15;;
81591;SDS011;71014;53.394;6.724;2023-10-13T12:19:59;7.72;;;3.35;;
81591;SDS011;71014;53.394;6.724;2023-10-13T12:22:25;8.60;;;3.58;;
81591;SDS011;71014;53.394;6.724;2023-10-13T12:25:00;8.65;;;3.78;;
81591;SDS011;71014;53.394;6.724;2023-10-13T12:27:29;5.60;;;3.50;;
81591;SDS011;71014;53.394;6.724;2023-10-13T12:30:11;9.00;;;3.67;;
81591;SDS011;71014;53.394;6.724;2023-10-13T12:32:38;11.68;;;3.90;;
81591;SDS011;71014;53.394;6.724;2023-10-13T12:35:09;9.52;;;3.72;;
81591;SDS011;71014;53.394;6.724;2023-10-13T12:37:35;8.00;;;4.10;;
81591;SDS011;71014;53.394;6.724;2023-10-13T12:40:08;7.72;;;4.28;;
81591;SDS011;71014;53.394;6.724;2023-10-13T12:42:54;12.95;;;4.43;;
81591;SDS011;71014;53.394;6.724;2023-10-13T12:45:39;9.77;;;3.70;;
81591;SDS011;71014;53.394;6.724;2023-10-13T12:48:23;9.02;;;4.85;;
81591;SDS011;71014;53.394;6.724;2023-10-13T12:51:08;16.35;;;5.70;;
81591;SDS011;71014;53.394;6.724;2023-10-13T12:53:53;8.32;;;4.32;;
81591;SDS011;71014;53.394;6.724;2023-10-13T12:56:20;9.85;;;4.47;;
81591;SDS011;71014;53.394;6.724;2023-10-13T12:58:51;11.57;;;4.57;;
81591;SDS011;71014;53.394;6.724;2023-10-13T13:03:46;12.35;;;5.47;;
81591;SDS011;71014;53.394;6.724;2023-10-13T13:06:17;16.73;;;5.53;;
81591;SDS011;71014;53.394;6.724;2023-10-13T13:08:49;11.43;;;5.53;;
81591;SDS011;71014;53.394;6.724;2023-10-13T13:11:15;14.65;;;6.03;;
81591;SDS011;71014;53.394;6.724;2023-10-13T13:13:41;12.63;;;4.50;;
81591;SDS011;71014;53.394;6.724;2023-10-13T13:16:07;14.45;;;5.43;;
81591;SDS011;71014;53.394;6.724;2023-10-13T13:18:34;10.23;;;4.65;;
81591;SDS011;71014;53.394;6.724;2023-10-13T13:21:00;10.45;;;5.35;;
81591;SDS011;71014;53.394;6.724;2023-10-13T13:23:31;8.95;;;4.35;;
81591;SDS011;71014;53.394;6.724;2023-10-13T13:25:57;13.00;;;5.10;;
81591;SDS011;71014;53.394;6.724;2023-10-13T13:28:23;8.95;;;4.60;;
81591;SDS011;71014;53.394;6.724;2023-10-13T13:30:49;9.25;;;4.82;;
81591;SDS011;71014;53.394;6.724;2023-10-13T13:33:19;9.23;;;5.60;;
81591;SDS011;71014;53.394;6.724;2023-10-13T13:35:52;10.43;;;4.55;;
81591;SDS011;71014;53.394;6.724;2023-10-13T13:38:18;10.85;;;4.90;;
81591;SDS011;71014;53.394;6.724;2023-10-13T13:40:52;13.45;;;5.65;;
81591;SDS011;71014;53.394;6.724;2023-10-13T13:43:22;12.18;;;5.63;;
81591;SDS011;71014;53.394;6.724;2023-10-13T13:46:03;9.15;;;5.20;;
81591;SDS011;71014;53.394;6.724;2023-10-13T13:48:34;12.55;;;6.20;;
81591;SDS011;71014;53.394;6.724;2023-10-13T13:51:03;10.63;;;5.63;;
81591;SDS011;71014;53.394;6.724;2023-10-13T13:53:31;14.73;;;5.07;;
81591;SDS011;71014;53.394;6.724;2023-10-13T13:56:03;10.20;;;5.38;;
81591;SDS011;71014;53.394;6.724;2023-10-13T13:58:29;14.18;;;5.15;;
81591;SDS011;71014;53.394;6.724;2023-10-13T14:00:59;16.15;;;5.25;;
81591;SDS011;71014;53.394;6.724;2023-10-13T14:03:25;13.27;;;5.82;;
81591;SDS011;71014;53.394;6.724;2023-10-13T14:05:58;11.73;;;6.05;;
81591;SDS011;71014;53.394;6.724;2023-10-13T14:08:24;9.63;;;4.57;;
81591;SDS011;71014;53.394;6.724;2023-10-13T14:10:52;11.65;;;5.28;;
81591;SDS011;71014;53.394;6.724;2023-10-13T14:13:37;12.10;;;4.53;;
81591;SDS011;71014;53.394;6.724;2023-10-13T14:16:13;8.00;;;4.53;;
81591;SDS011;71014;53.394;6.724;2023-10-13T14:18:46;10.30;;;4.45;;
81591;SDS011;71014;53.394;6.724;2023-10-13T14:21:12;11.38;;;4.32;;
81591;SDS011;71014;53.394;6.724;2023-10-13T14:23:45;9.73;;;5.30;;
81591;SDS011;71014;53.394;6.724;2023-10-13T14:26:12;9.65;;;4.03;;
81591;SDS011;71014;53.394;6.724;2023-10-13T14:28:38;12.13;;;5.18;;
81591;SDS011;71014;53.394;6.724;2023-10-13T14:31:15;10.55;;;5.00;;
81591;SDS011;71014;53.394;6.724;2023-10-13T14:33:41;11.35;;;4.90;;
81591;SDS011;71014;53.394;6.724;2023-10-13T14:36:09;11.40;;;4.60;;
81591;SDS011;71014;53.394;6.724;2023-10-13T14:38:35;12.90;;;4.53;;
81591;SDS011;71014;53.394;6.724;2023-10-13T14:41:01;10.30;;;4.68;;
81591;SDS011;71014;53.394;6.724;2023-10-13T14:43:27;8.55;;;4.35;;
81591;SDS011;71014;53.394;6.724;2023-10-13T14:45:53;11.43;;;5.18;;
81591;SDS011;71014;53.394;6.724;2023-10-13T14:48:20;11.02;;;4.82;;
81591;SDS011;71014;53.394;6.724;2023-10-13T14:50:49;10.00;;;4.68;;
81591;SDS011;71014;53.394;6.724;2023-10-13T14:53:15;8.30;;;5.22;;
81591;SDS011;71014;53.394;6.724;2023-10-13T14:55:44;12.57;;;5.57;;
81591;SDS011;71014;53.394;6.724;2023-10-13T14:58:10;11.00;;;5.18;;
81591;SDS011;71014;53.394;6.724;2023-10-13T15:00:41;10.77;;;4.70;;
81591;SDS011;71014;53.394;6.724;2023-10-13T15:03:10;12.18;;;4.65;;
81591;SDS011;71014;53.394;6.724;2023-10-13T15:05:39;10.10;;;5.30;;
81591;SDS011;71014;53.394;6.724;2023-10-13T15:08:08;10.52;;;4.80;;
81591;SDS011;71014;53.394;6.724;2023-10-13T15:10:34;9.55;;;4.55;;
81591;SDS011;71014;53.394;6.724;2023-10-13T15:13:02;15.15;;;4.85;;
81591;SDS011;71014;53.394;6.724;2023-10-13T15:15:28;11.27;;;5.43;;
81591;SDS011;71014;53.394;6.724;2023-10-13T15:17:57;10.85;;;4.82;;
81591;SDS011;71014;53.394;6.724;2023-10-13T15:20:23;9.38;;;4.28;;
81591;SDS011;71014;53.394;6.724;2023-10-13T15:22:49;12.18;;;5.25;;
81591;SDS011;71014;53.394;6.724;2023-10-13T15:25:19;12.40;;;4.55;;
81591;SDS011;71014;53.394;6.724;2023-10-13T15:28:00;11.32;;;4.68;;
81591;SDS011;71014;53.394;6.724;2023-10-13T15:30:33;7.43;;;4.15;;
81591;SDS011;71014;53.394;6.724;2023-10-13T15:33:21;10.80;;;3.88;;
81591;SDS011;71014;53.394;6.724;2023-10-13T15:35:48;14.55;;;5.60;;
81591;SDS011;71014;53.394;6.724;2023-10-13T15:38:16;9.13;;;4.60;;
81591;SDS011;71014;53.394;6.724;2023-10-13T15:40:44;11.10;;;5.00;;
81591;SDS011;71014;53.394;6.724;2023-10-13T15:43:11;10.88;;;4.93;;
81591;SDS011;71014;53.394;6.724;2023-10-13T15:45:37;13.85;;;4.72;;
81591;SDS011;71014;53.394;6.724;2023-10-13T15:48:10;12.52;;;4.53;;
81591;SDS011;71014;53.394;6.724;2023-10-13T15:50:39;13.55;;;4.63;;
81591;SDS011;71014;53.394;6.724;2023-10-13T15:53:06;13.65;;;4.97;;